sensor_id;sensor_type;location;lat;lon;timestamp;P1;durP1;ratioP1;P2;durP2;ratioP2
22778;SDS011;11556;51.194;3.800;2023-10-08T00:01:07;10.23;;;4.40;;
22778;SDS011;11556;51.194;3.800;2023-10-08T00:03:39;12.20;;;3.77;;
22778;SDS011;11556;51.194;3.800;2023-10-08T00:06:06;9.57;;;4.07;;
22778;SDS011;11556;51.194;3.800;2023-10-08T00:08:32;10.48;;;4.18;;
22778;SDS011;11556;51.194;3.800;2023-10-08T00:10:58;14.23;;;4.68;;
22778;SDS011;11556;51.194;3.800;2023-10-08T00:13:31;9.82;;;4.10;;
22778;SDS011;11556;51.194;3.800;2023-10-08T00:16:00;8.02;;;4.28;;
22778;SDS011;11556;51.194;3.800;2023-10-08T00:18:26;9.57;;;4.68;;
22778;SDS011;11556;51.194;3.800;2023-10-08T00:20:52;12.40;;;4.70;;
22778;SDS011;11556;51.194;3.800;2023-10-08T00:23:40;8.65;;;4.70;;
22778;SDS011;11556;51.194;3.800;2023-10-08T00:26:24;12.50;;;4.80;;
22778;SDS011;11556;51.194;3.800;2023-10-08T00:28:57;12.15;;;4.95;;
22778;SDS011;11556;51.194;3.800;2023-10-08T00:31:26;9.82;;;4.70;;
22778;SDS011;11556;51.194;3.800;2023-10-08T00:34:02;11.30;;;5.10;;
22778;SDS011;11556;51.194;3.800;2023-10-08T00:36:30;10.02;;;4.70;;
22778;SDS011;11556;51.194;3.800;2023-10-08T00:38:56;8.73;;;4.78;;
22778;SDS011;11556;51.194;3.800;2023-10-08T00:41:25;13.15;;;4.75;;
22778;SDS011;11556;51.194;3.800;2023-10-08T00:43:53;19.17;;;5.68;;
22778;SDS011;11556;51.194;3.800;2023-10-08T00:46:22;10.63;;;5.20;;
22778;SDS011;11556;51.194;3.800;2023-10-08T00:48:51;8.25;;;4.90;;
22778;SDS011;11556;51.194;3.800;2023-10-08T00:51:26;13.68;;;5.95;;
22778;SDS011;11556;51.194;3.800;2023-10-08T00:54:00;10.32;;;5.20;;
22778;SDS011;11556;51.194;3.800;2023-10-08T00:56:34;10.48;;;5.25;;
22778;SDS011;11556;51.194;3.800;2023-10-08T00:59:33;11.13;;;5.22;;
22778;SDS011;11556;51.194;3.800;2023-10-08T01:02:19;10.30;;;5.43;;
22778;SDS011;11556;51.194;3.800;2023-10-08T01:04:49;13.98;;;5.20;;
22778;SDS011;11556;51.194;3.800;2023-10-08T01:07:15;9.85;;;5.13;;
22778;SDS011;11556;51.194;3.800;2023-10-08T01:09:43;10.35;;;4.85;;
22778;SDS011;11556;51.194;3.800;2023-10-08T01:14:46;11.57;;;5.38;;
22778;SDS011;11556;51.194;3.800;2023-10-08T01:17:14;12.02;;;5.35;;
22778;SDS011;11556;51.194;3.800;2023-10-08T01:19:47;9.70;;;5.38;;
22778;SDS011;11556;51.194;3.800;2023-10-08T01:22:19;10.45;;;4.78;;
22778;SDS011;11556;51.194;3.800;2023-10-08T01:24:47;11.90;;;5.32;;
22778;SDS011;11556;51.194;3.800;2023-10-08T01:27:17;11.50;;;4.97;;
22778;SDS011;11556;51.194;3.800;2023-10-08T01:29:47;8.50;;;4.43;;
22778;SDS011;11556;51.194;3.800;2023-10-08T01:32:15;10.63;;;5.22;;
22778;SDS011;11556;51.194;3.800;2023-10-08T01:34:42;14.93;;;5.50;;
22778;SDS011;11556;51.194;3.800;2023-10-08T01:37:13;8.80;;;4.90;;
22778;SDS011;11556;51.194;3.800;2023-10-08T01:39:42;12.20;;;5.38;;
22778;SDS011;11556;51.194;3.800;2023-10-08T01:42:08;11.32;;;4.90;;
22778;SDS011;11556;51.194;3.800;2023-10-08T01:44:47;9.65;;;5.10;;
22778;SDS011;11556;51.194;3.800;2023-10-08T01:47:14;10.55;;;4.88;;
22778;SDS011;11556;51.194;3.800;2023-10-08T01:49:41;10.75;;;4.85;;
22778;SDS011;11556;51.194;3.800;2023-10-08T01:52:09;11.85;;;5.25;;
22778;SDS011;11556;51.194;3.800;2023-10-08T01:55:02;11.82;;;5.82;;
22778;SDS011;11556;51.194;3.800;2023-10-08T01:57:28;9.05;;;4.85;;
22778;SDS011;11556;51.194;3.800;2023-10-08T01:59:53;9.00;;;5.03;;
22778;SDS011;11556;51.194;3.800;2023-10-08T02:02:19;15.07;;;5.70;;
22778;SDS011;11556;51.194;3.800;2023-10-08T02:04:45;11.60;;;5.40;;
22778;SDS011;11556;51.194;3.800;2023-10-08T02:07:12;10.82;;;5.55;;
22778;SDS011;11556;51.194;3.800;2023-10-08T02:09:40;12.20;;;5.40;;
22778;SDS011;11556;51.194;3.800;2023-10-08T02:12:06;11.75;;;6.10;;
22778;SDS011;11556;51.194;3.800;2023-10-08T02:14:33;14.75;;;6.40;;
22778;SDS011;11556;51.194;3.800;2023-10-08T02:17:00;10.18;;;6.03;;
22778;SDS011;11556;51.194;3.800;2023-10-08T02:19:31;14.73;;;6.60;;
22778;SDS011;11556;51.194;3.800;2023-10-08T02:21:57;13.98;;;5.93;;
22778;SDS011;11556;51.194;3.800;2023-10-08T02:24:23;17.42;;;6.60;;
22778;SDS011;11556;51.194;3.800;2023-10-08T02:26:53;10.23;;;5.55;;
22778;SDS011;11556;51.194;3.800;2023-10-08T02:29:20;12.93;;;5.93;;
22778;SDS011;11556;51.194;3.800;2023-10-08T02:31:48;13.00;;;6.20;;
22778;SDS011;11556;51.194;3.800;2023-10-08T02:34:13;15.55;;;6.22;;
22778;SDS011;11556;51.194;3.800;2023-10-08T02:36:40;12.52;;;6.50;;
22778;SDS011;11556;51.194;3.800;2023-10-08T02:39:06;16.20;;;6.63;;
22778;SDS011;11556;51.194;3.800;2023-10-08T02:41:41;14.50;;;6.47;;
22778;SDS011;11556;51.194;3.800;2023-10-08T02:44:08;10.88;;;6.35;;
22778;SDS011;11556;51.194;3.800;2023-10-08T02:46:39;14.32;;;6.53;;
22778;SDS011;11556;51.194;3.800;2023-10-08T02:49:14;13.68;;;6.60;;
22778;SDS011;11556;51.194;3.800;2023-10-08T02:51:45;12.95;;;6.55;;
22778;SDS011;11556;51.194;3.800;2023-10-08T02:54:11;13.82;;;6.43;;
22778;SDS011;11556;51.194;3.800;2023-10-08T02:56:49;13.88;;;6.53;;
22778;SDS011;11556;51.194;3.800;2023-10-08T02:59:16;9.52;;;6.05;;
22778;SDS011;11556;51.194;3.800;2023-10-08T03:01:48;13.82;;;6.93;;
22778;SDS011;11556;51.194;3.800;2023-10-08T03:04:21;15.77;;;7.00;;
22778;SDS011;11556;51.194;3.800;2023-10-08T03:06:50;14.20;;;6.95;;
22778;SDS011;11556;51.194;3.800;2023-10-08T03:09:20;13.63;;;6.68;;
22778;SDS011;11556;51.194;3.800;2023-10-08T03:11:48;16.13;;;6.90;;
22778;SDS011;11556;51.194;3.800;2023-10-08T03:14:18;9.18;;;6.13;;
22778;SDS011;11556;51.194;3.800;2023-10-08T03:16:48;18.02;;;7.63;;
22778;SDS011;11556;51.194;3.800;2023-10-08T03:19:18;15.98;;;6.93;;
22778;SDS011;11556;51.194;3.800;2023-10-08T03:21:48;17.85;;;7.30;;
22778;SDS011;11556;51.194;3.800;2023-10-08T03:24:16;13.43;;;6.93;;
22778;SDS011;11556;51.194;3.800;2023-10-08T03:26:58;14.38;;;6.63;;
22778;SDS011;11556;51.194;3.800;2023-10-08T03:29:46;14.77;;;7.07;;
22778;SDS011;11556;51.194;3.800;2023-10-08T03:32:12;11.73;;;6.93;;
22778;SDS011;11556;51.194;3.800;2023-10-08T03:34:43;24.13;;;7.13;;
22778;SDS011;11556;51.194;3.800;2023-10-08T03:37:16;15.55;;;7.25;;
22778;SDS011;11556;51.194;3.800;2023-10-08T03:39:49;16.95;;;7.07;;
22778;SDS011;11556;51.194;3.800;2023-10-08T03:42:22;15.23;;;7.38;;
22778;SDS011;11556;51.194;3.800;2023-10-08T03:44:50;14.15;;;7.43;;
22778;SDS011;11556;51.194;3.800;2023-10-08T03:47:20;15.00;;;7.38;;
22778;SDS011;11556;51.194;3.800;2023-10-08T03:49:48;17.05;;;7.70;;
22778;SDS011;11556;51.194;3.800;2023-10-08T03:52:16;19.25;;;7.43;;
22778;SDS011;11556;51.194;3.800;2023-10-08T03:54:47;18.50;;;7.30;;
22778;SDS011;11556;51.194;3.800;2023-10-08T03:57:29;15.27;;;7.90;;
22778;SDS011;11556;51.194;3.800;2023-10-08T04:00:07;17.85;;;7.35;;
22778;SDS011;11556;51.194;3.800;2023-10-08T04:02:54;17.10;;;7.32;;
22778;SDS011;11556;51.194;3.800;2023-10-08T04:05:26;16.85;;;7.80;;
22778;SDS011;11556;51.194;3.800;2023-10-08T04:08:05;18.27;;;8.20;;
22778;SDS011;11556;51.194;3.800;2023-10-08T04:10:42;14.68;;;8.23;;
22778;SDS011;11556;51.194;3.800;2023-10-08T04:13:08;15.30;;;7.68;;
22778;SDS011;11556;51.194;3.800;2023-10-08T04:15:37;21.30;;;8.40;;
22778;SDS011;11556;51.194;3.800;2023-10-08T04:18:07;14.02;;;7.95;;
22778;SDS011;11556;51.194;3.800;2023-10-08T04:20:33;16.27;;;8.05;;
22778;SDS011;11556;51.194;3.800;2023-10-08T04:23:05;16.92;;;8.05;;
22778;SDS011;11556;51.194;3.800;2023-10-08T04:25:46;16.15;;;8.27;;
22778;SDS011;11556;51.194;3.800;2023-10-08T04:28:18;15.45;;;7.95;;
22778;SDS011;11556;51.194;3.800;2023-10-08T04:30:45;18.95;;;8.32;;
22778;SDS011;11556;51.194;3.800;2023-10-08T04:33:13;20.65;;;8.88;;
22778;SDS011;11556;51.194;3.800;2023-10-08T04:35:40;16.92;;;8.13;;
22778;SDS011;11556;51.194;3.800;2023-10-08T04:38:13;12.13;;;7.82;;
22778;SDS011;11556;51.194;3.800;2023-10-08T04:40:42;19.05;;;8.43;;
22778;SDS011;11556;51.194;3.800;2023-10-08T04:43:17;15.25;;;8.32;;
22778;SDS011;11556;51.194;3.800;2023-10-08T04:45:59;19.83;;;8.95;;
22778;SDS011;11556;51.194;3.800;2023-10-08T04:48:30;17.55;;;9.43;;
22778;SDS011;11556;51.194;3.800;2023-10-08T04:51:01;15.68;;;8.95;;
22778;SDS011;11556;51.194;3.800;2023-10-08T04:53:29;17.35;;;8.77;;
22778;SDS011;11556;51.194;3.800;2023-10-08T04:56:00;19.25;;;8.70;;
22778;SDS011;11556;51.194;3.800;2023-10-08T04:58:31;22.75;;;10.00;;
22778;SDS011;11556;51.194;3.800;2023-10-08T05:01:02;17.55;;;9.57;;
22778;SDS011;11556;51.194;3.800;2023-10-08T05:06:20;18.83;;;9.65;;
22778;SDS011;11556;51.194;3.800;2023-10-08T05:09:08;18.10;;;9.63;;
22778;SDS011;11556;51.194;3.800;2023-10-08T05:11:43;17.80;;;9.50;;
22778;SDS011;11556;51.194;3.800;2023-10-08T05:14:19;19.98;;;9.30;;
22778;SDS011;11556;51.194;3.800;2023-10-08T05:16:59;17.73;;;8.85;;
22778;SDS011;11556;51.194;3.800;2023-10-08T05:19:34;22.05;;;9.15;;
22778;SDS011;11556;51.194;3.800;2023-10-08T05:22:09;19.13;;;9.45;;
22778;SDS011;11556;51.194;3.800;2023-10-08T05:24:59;20.50;;;9.82;;
22778;SDS011;11556;51.194;3.800;2023-10-08T05:27:43;21.88;;;9.63;;
22778;SDS011;11556;51.194;3.800;2023-10-08T05:30:12;18.73;;;9.60;;
22778;SDS011;11556;51.194;3.800;2023-10-08T05:33:02;19.52;;;10.23;;
22778;SDS011;11556;51.194;3.800;2023-10-08T05:35:41;16.67;;;9.52;;
22778;SDS011;11556;51.194;3.800;2023-10-08T05:38:08;16.67;;;9.50;;
22778;SDS011;11556;51.194;3.800;2023-10-08T05:40:47;18.42;;;9.75;;
22778;SDS011;11556;51.194;3.800;2023-10-08T05:43:25;19.27;;;10.27;;
22778;SDS011;11556;51.194;3.800;2023-10-08T05:46:23;24.08;;;10.27;;
22778;SDS011;11556;51.194;3.800;2023-10-08T05:48:48;17.73;;;10.20;;
22778;SDS011;11556;51.194;3.800;2023-10-08T05:51:35;20.70;;;10.27;;
22778;SDS011;11556;51.194;3.800;2023-10-08T05:54:18;20.10;;;10.02;;
22778;SDS011;11556;51.194;3.800;2023-10-08T05:56:54;25.15;;;11.10;;
22778;SDS011;11556;51.194;3.800;2023-10-08T06:02:24;20.27;;;9.77;;
22778;SDS011;11556;51.194;3.800;2023-10-08T06:07:40;16.92;;;10.13;;
22778;SDS011;11556;51.194;3.800;2023-10-08T06:15:45;17.35;;;10.65;;
22778;SDS011;11556;51.194;3.800;2023-10-08T06:18:23;21.85;;;10.63;;
22778;SDS011;11556;51.194;3.800;2023-10-08T06:20:52;15.73;;;10.60;;
22778;SDS011;11556;51.194;3.800;2023-10-08T06:23:23;22.10;;;10.60;;
22778;SDS011;11556;51.194;3.800;2023-10-08T06:25:50;19.02;;;10.98;;
22778;SDS011;11556;51.194;3.800;2023-10-08T06:28:19;23.65;;;11.18;;
22778;SDS011;11556;51.194;3.800;2023-10-08T06:30:49;15.38;;;10.68;;
22778;SDS011;11556;51.194;3.800;2023-10-08T06:33:18;21.38;;;11.15;;
22778;SDS011;11556;51.194;3.800;2023-10-08T06:35:50;22.65;;;10.98;;
22778;SDS011;11556;51.194;3.800;2023-10-08T06:38:31;22.42;;;10.18;;
22778;SDS011;11556;51.194;3.800;2023-10-08T06:40:58;17.08;;;10.23;;
22778;SDS011;11556;51.194;3.800;2023-10-08T06:43:48;17.55;;;10.70;;
22778;SDS011;11556;51.194;3.800;2023-10-08T06:46:15;18.00;;;10.45;;
22778;SDS011;11556;51.194;3.800;2023-10-08T06:48:44;19.85;;;10.55;;
22778;SDS011;11556;51.194;3.800;2023-10-08T06:51:11;17.83;;;9.95;;
22778;SDS011;11556;51.194;3.800;2023-10-08T06:53:43;18.10;;;9.68;;
22778;SDS011;11556;51.194;3.800;2023-10-08T06:56:10;20.30;;;10.07;;
22778;SDS011;11556;51.194;3.800;2023-10-08T06:58:38;16.77;;;9.63;;
22778;SDS011;11556;51.194;3.800;2023-10-08T07:01:04;23.73;;;11.55;;
22778;SDS011;11556;51.194;3.800;2023-10-08T07:03:30;20.58;;;10.20;;
22778;SDS011;11556;51.194;3.800;2023-10-08T07:05:58;18.38;;;10.48;;
22778;SDS011;11556;51.194;3.800;2023-10-08T07:08:31;18.33;;;9.57;;
22778;SDS011;11556;51.194;3.800;2023-10-08T07:10:59;22.88;;;11.13;;
22778;SDS011;11556;51.194;3.800;2023-10-08T07:13:36;20.70;;;9.63;;
22778;SDS011;11556;51.194;3.800;2023-10-08T07:16:04;17.65;;;10.10;;
22778;SDS011;11556;51.194;3.800;2023-10-08T07:18:31;23.73;;;10.48;;
22778;SDS011;11556;51.194;3.800;2023-10-08T07:20:59;26.20;;;10.70;;
22778;SDS011;11556;51.194;3.800;2023-10-08T07:23:36;21.85;;;10.27;;
22778;SDS011;11556;51.194;3.800;2023-10-08T07:26:18;20.00;;;10.77;;
22778;SDS011;11556;51.194;3.800;2023-10-08T07:28:49;22.17;;;10.32;;
22778;SDS011;11556;51.194;3.800;2023-10-08T07:31:20;16.30;;;9.15;;
22778;SDS011;11556;51.194;3.800;2023-10-08T07:33:50;22.08;;;9.80;;
22778;SDS011;11556;51.194;3.800;2023-10-08T07:36:38;20.70;;;9.63;;
22778;SDS011;11556;51.194;3.800;2023-10-08T07:39:04;14.70;;;8.88;;
22778;SDS011;11556;51.194;3.800;2023-10-08T07:41:33;20.10;;;9.73;;
22778;SDS011;11556;51.194;3.800;2023-10-08T07:43:59;19.73;;;9.80;;
22778;SDS011;11556;51.194;3.800;2023-10-08T07:46:25;15.90;;;8.98;;
22778;SDS011;11556;51.194;3.800;2023-10-08T07:48:54;18.45;;;9.48;;
22778;SDS011;11556;51.194;3.800;2023-10-08T07:51:23;20.67;;;9.73;;
22778;SDS011;11556;51.194;3.800;2023-10-08T07:53:51;19.27;;;10.00;;
22778;SDS011;11556;51.194;3.800;2023-10-08T07:56:21;17.52;;;9.18;;
22778;SDS011;11556;51.194;3.800;2023-10-08T07:58:47;20.38;;;9.43;;
22778;SDS011;11556;51.194;3.800;2023-10-08T08:01:13;19.95;;;9.40;;
22778;SDS011;11556;51.194;3.800;2023-10-08T08:03:39;16.98;;;9.10;;
22778;SDS011;11556;51.194;3.800;2023-10-08T08:06:07;16.98;;;8.63;;
22778;SDS011;11556;51.194;3.800;2023-10-08T08:08:34;20.13;;;9.45;;
22778;SDS011;11556;51.194;3.800;2023-10-08T08:11:07;18.58;;;8.38;;
22778;SDS011;11556;51.194;3.800;2023-10-08T08:13:43;18.98;;;8.23;;
22778;SDS011;11556;51.194;3.800;2023-10-08T08:16:13;21.10;;;8.95;;
22778;SDS011;11556;51.194;3.800;2023-10-08T08:18:48;18.70;;;8.77;;
22778;SDS011;11556;51.194;3.800;2023-10-08T08:21:20;17.40;;;9.20;;
22778;SDS011;11556;51.194;3.800;2023-10-08T08:23:48;19.52;;;9.20;;
22778;SDS011;11556;51.194;3.800;2023-10-08T08:26:22;17.33;;;9.18;;
22778;SDS011;11556;51.194;3.800;2023-10-08T08:28:55;19.48;;;9.40;;
22778;SDS011;11556;51.194;3.800;2023-10-08T08:31:22;21.73;;;9.82;;
22778;SDS011;11556;51.194;3.800;2023-10-08T08:33:51;22.17;;;8.98;;
22778;SDS011;11556;51.194;3.800;2023-10-08T08:36:21;16.65;;;8.50;;
22778;SDS011;11556;51.194;3.800;2023-10-08T08:38:47;18.73;;;9.25;;
22778;SDS011;11556;51.194;3.800;2023-10-08T08:41:14;17.55;;;9.45;;
22778;SDS011;11556;51.194;3.800;2023-10-08T08:43:43;22.38;;;9.63;;
22778;SDS011;11556;51.194;3.800;2023-10-08T08:46:27;19.40;;;9.98;;
22778;SDS011;11556;51.194;3.800;2023-10-08T08:49:00;17.63;;;9.43;;
22778;SDS011;11556;51.194;3.800;2023-10-08T08:51:29;17.95;;;8.55;;
22778;SDS011;11556;51.194;3.800;2023-10-08T08:53:56;16.42;;;9.10;;
22778;SDS011;11556;51.194;3.800;2023-10-08T08:56:24;12.50;;;8.60;;
22778;SDS011;11556;51.194;3.800;2023-10-08T08:58:53;20.13;;;8.65;;
22778;SDS011;11556;51.194;3.800;2023-10-08T09:01:20;17.35;;;9.20;;
22778;SDS011;11556;51.194;3.800;2023-10-08T09:03:46;23.45;;;9.13;;
22778;SDS011;11556;51.194;3.800;2023-10-08T09:06:13;19.27;;;8.45;;
22778;SDS011;11556;51.194;3.800;2023-10-08T09:08:40;14.40;;;8.85;;
22778;SDS011;11556;51.194;3.800;2023-10-08T09:11:13;21.20;;;8.77;;
22778;SDS011;11556;51.194;3.800;2023-10-08T09:13:40;20.17;;;8.85;;
22778;SDS011;11556;51.194;3.800;2023-10-08T09:16:13;17.88;;;9.10;;
22778;SDS011;11556;51.194;3.800;2023-10-08T09:18:43;18.70;;;8.35;;
22778;SDS011;11556;51.194;3.800;2023-10-08T09:21:11;19.75;;;8.13;;
22778;SDS011;11556;51.194;3.800;2023-10-08T09:23:40;27.02;;;8.75;;
22778;SDS011;11556;51.194;3.800;2023-10-08T09:26:09;18.10;;;8.45;;
22778;SDS011;11556;51.194;3.800;2023-10-08T09:28:38;19.58;;;8.40;;
22778;SDS011;11556;51.194;3.800;2023-10-08T09:31:06;15.35;;;7.45;;
22778;SDS011;11556;51.194;3.800;2023-10-08T09:33:36;15.10;;;7.47;;
22778;SDS011;11556;51.194;3.800;2023-10-08T09:36:02;20.05;;;7.78;;
22778;SDS011;11556;51.194;3.800;2023-10-08T09:38:30;17.83;;;8.05;;
22778;SDS011;11556;51.194;3.800;2023-10-08T09:40:59;17.90;;;8.38;;
22778;SDS011;11556;51.194;3.800;2023-10-08T09:43:28;18.10;;;8.13;;
22778;SDS011;11556;51.194;3.800;2023-10-08T09:46:13;15.27;;;8.95;;
22778;SDS011;11556;51.194;3.800;2023-10-08T09:48:48;14.05;;;8.63;;
22778;SDS011;11556;51.194;3.800;2023-10-08T09:51:17;27.63;;;13.38;;
22778;SDS011;11556;51.194;3.800;2023-10-08T09:56:38;20.02;;;8.93;;
22778;SDS011;11556;51.194;3.800;2023-10-08T09:59:05;24.83;;;10.00;;
22778;SDS011;11556;51.194;3.800;2023-10-08T10:01:34;21.58;;;9.27;;
22778;SDS011;11556;51.194;3.800;2023-10-08T10:04:10;25.92;;;10.82;;
22778;SDS011;11556;51.194;3.800;2023-10-08T10:06:49;20.83;;;10.70;;
22778;SDS011;11556;51.194;3.800;2023-10-08T10:09:21;28.05;;;12.15;;
22778;SDS011;11556;51.194;3.800;2023-10-08T10:11:49;26.65;;;11.35;;
22778;SDS011;11556;51.194;3.800;2023-10-08T10:14:17;28.42;;;12.35;;
22778;SDS011;11556;51.194;3.800;2023-10-08T10:16:43;25.25;;;12.02;;
22778;SDS011;11556;51.194;3.800;2023-10-08T10:19:17;21.67;;;11.27;;
22778;SDS011;11556;51.194;3.800;2023-10-08T10:21:46;24.30;;;12.18;;
22778;SDS011;11556;51.194;3.800;2023-10-08T10:24:33;22.45;;;11.15;;
22778;SDS011;11556;51.194;3.800;2023-10-08T10:27:10;26.35;;;12.02;;
22778;SDS011;11556;51.194;3.800;2023-10-08T10:29:37;22.17;;;10.63;;
22778;SDS011;11556;51.194;3.800;2023-10-08T10:32:02;17.25;;;9.55;;
22778;SDS011;11556;51.194;3.800;2023-10-08T10:34:30;22.58;;;10.10;;
22778;SDS011;11556;51.194;3.800;2023-10-08T10:36:59;23.38;;;9.95;;
22778;SDS011;11556;51.194;3.800;2023-10-08T10:39:33;18.65;;;9.52;;
22778;SDS011;11556;51.194;3.800;2023-10-08T10:42:05;21.05;;;9.35;;
22778;SDS011;11556;51.194;3.800;2023-10-08T10:44:43;24.50;;;10.57;;
22778;SDS011;11556;51.194;3.800;2023-10-08T10:47:09;24.50;;;10.73;;
22778;SDS011;11556;51.194;3.800;2023-10-08T10:49:41;20.17;;;11.02;;
22778;SDS011;11556;51.194;3.800;2023-10-08T10:52:26;24.08;;;10.80;;
22778;SDS011;11556;51.194;3.800;2023-10-08T10:55:10;22.25;;;11.93;;
22778;SDS011;11556;51.194;3.800;2023-10-08T10:57:42;18.13;;;9.70;;
22778;SDS011;11556;51.194;3.800;2023-10-08T11:00:19;20.23;;;8.95;;
22778;SDS011;11556;51.194;3.800;2023-10-08T11:03:00;15.40;;;8.35;;
22778;SDS011;11556;51.194;3.800;2023-10-08T11:05:41;19.60;;;7.78;;
22778;SDS011;11556;51.194;3.800;2023-10-08T11:08:13;15.52;;;7.82;;
22778;SDS011;11556;51.194;3.800;2023-10-08T11:10:43;17.58;;;7.57;;
22778;SDS011;11556;51.194;3.800;2023-10-08T11:13:14;15.97;;;7.13;;
22778;SDS011;11556;51.194;3.800;2023-10-08T11:15:41;14.70;;;7.32;;
22778;SDS011;11556;51.194;3.800;2023-10-08T11:18:12;14.77;;;7.10;;
22778;SDS011;11556;51.194;3.800;2023-10-08T11:20:41;17.52;;;7.85;;
22778;SDS011;11556;51.194;3.800;2023-10-08T11:26:01;15.07;;;7.38;;
22778;SDS011;11556;51.194;3.800;2023-10-08T11:28:34;17.05;;;7.88;;
22778;SDS011;11556;51.194;3.800;2023-10-08T11:31:06;14.68;;;7.20;;
22778;SDS011;11556;51.194;3.800;2023-10-08T11:33:39;16.65;;;6.80;;
22778;SDS011;11556;51.194;3.800;2023-10-08T11:36:06;16.00;;;7.53;;
22778;SDS011;11556;51.194;3.800;2023-10-08T11:38:52;16.02;;;7.28;;
22778;SDS011;11556;51.194;3.800;2023-10-08T11:41:25;18.27;;;8.15;;
22778;SDS011;11556;51.194;3.800;2023-10-08T11:43:53;16.23;;;7.78;;
22778;SDS011;11556;51.194;3.800;2023-10-08T11:46:29;15.63;;;8.18;;
22778;SDS011;11556;51.194;3.800;2023-10-08T11:49:05;9.98;;;6.30;;
22778;SDS011;11556;51.194;3.800;2023-10-08T11:51:34;13.55;;;6.03;;
22778;SDS011;11556;51.194;3.800;2023-10-08T11:54:03;15.45;;;6.03;;
22778;SDS011;11556;51.194;3.800;2023-10-08T11:56:36;11.77;;;6.00;;
22778;SDS011;11556;51.194;3.800;2023-10-08T11:59:03;17.83;;;5.85;;
22778;SDS011;11556;51.194;3.800;2023-10-08T12:01:36;14.50;;;7.07;;
22778;SDS011;11556;51.194;3.800;2023-10-08T12:04:03;13.35;;;6.30;;
22778;SDS011;11556;51.194;3.800;2023-10-08T12:06:29;18.40;;;6.88;;
22778;SDS011;11556;51.194;3.800;2023-10-08T12:08:57;13.60;;;6.47;;
22778;SDS011;11556;51.194;3.800;2023-10-08T12:11:26;16.55;;;7.07;;
22778;SDS011;11556;51.194;3.800;2023-10-08T12:13:58;16.80;;;6.32;;
22778;SDS011;11556;51.194;3.800;2023-10-08T12:16:24;17.23;;;6.95;;
22778;SDS011;11556;51.194;3.800;2023-10-08T12:18:54;13.43;;;6.53;;
22778;SDS011;11556;51.194;3.800;2023-10-08T12:21:27;14.43;;;7.03;;
22778;SDS011;11556;51.194;3.800;2023-10-08T12:23:59;17.30;;;6.80;;
22778;SDS011;11556;51.194;3.800;2023-10-08T12:26:29;16.08;;;7.07;;
22778;SDS011;11556;51.194;3.800;2023-10-08T12:28:56;17.35;;;6.82;;
22778;SDS011;11556;51.194;3.800;2023-10-08T12:31:22;15.70;;;6.65;;
22778;SDS011;11556;51.194;3.800;2023-10-08T12:33:49;13.98;;;6.95;;
22778;SDS011;11556;51.194;3.800;2023-10-08T12:36:18;11.65;;;6.78;;
22778;SDS011;11556;51.194;3.800;2023-10-08T12:38:48;13.38;;;7.03;;
22778;SDS011;11556;51.194;3.800;2023-10-08T12:41:14;15.13;;;6.30;;
22778;SDS011;11556;51.194;3.800;2023-10-08T12:43:44;14.80;;;6.43;;
22778;SDS011;11556;51.194;3.800;2023-10-08T12:46:13;12.57;;;6.53;;
22778;SDS011;11556;51.194;3.800;2023-10-08T12:48:49;15.27;;;6.50;;
22778;SDS011;11556;51.194;3.800;2023-10-08T12:51:22;14.23;;;6.65;;
22778;SDS011;11556;51.194;3.800;2023-10-08T12:53:50;11.80;;;6.68;;
22778;SDS011;11556;51.194;3.800;2023-10-08T12:56:31;11.48;;;6.63;;
22778;SDS011;11556;51.194;3.800;2023-10-08T12:58:57;14.55;;;6.53;;
22778;SDS011;11556;51.194;3.800;2023-10-08T13:01:23;15.30;;;6.60;;
22778;SDS011;11556;51.194;3.800;2023-10-08T13:03:54;15.05;;;6.78;;
22778;SDS011;11556;51.194;3.800;2023-10-08T13:06:25;13.48;;;6.78;;
22778;SDS011;11556;51.194;3.800;2023-10-08T13:08:57;10.15;;;5.97;;
22778;SDS011;11556;51.194;3.800;2023-10-08T13:11:24;13.20;;;6.13;;
22778;SDS011;11556;51.194;3.800;2023-10-08T13:16:18;15.10;;;6.45;;
22778;SDS011;11556;51.194;3.800;2023-10-08T13:18:46;13.88;;;6.25;;
22778;SDS011;11556;51.194;3.800;2023-10-08T13:21:15;11.68;;;6.65;;
22778;SDS011;11556;51.194;3.800;2023-10-08T13:23:44;12.65;;;5.82;;
22778;SDS011;11556;51.194;3.800;2023-10-08T13:26:11;15.05;;;6.68;;
22778;SDS011;11556;51.194;3.800;2023-10-08T13:28:42;13.82;;;6.80;;
22778;SDS011;11556;51.194;3.800;2023-10-08T13:31:08;11.57;;;6.07;;
22778;SDS011;11556;51.194;3.800;2023-10-08T13:33:37;13.43;;;6.75;;
22778;SDS011;11556;51.194;3.800;2023-10-08T13:36:10;10.75;;;6.15;;
22778;SDS011;11556;51.194;3.800;2023-10-08T13:38:38;14.15;;;6.93;;
22778;SDS011;11556;51.194;3.800;2023-10-08T13:41:08;19.45;;;7.43;;
22778;SDS011;11556;51.194;3.800;2023-10-08T13:43:49;13.52;;;6.57;;
22778;SDS011;11556;51.194;3.800;2023-10-08T13:46:24;11.38;;;6.32;;
22778;SDS011;11556;51.194;3.800;2023-10-08T13:48:50;12.05;;;6.82;;
22778;SDS011;11556;51.194;3.800;2023-10-08T13:51:16;10.43;;;6.38;;
22778;SDS011;11556;51.194;3.800;2023-10-08T13:53:57;11.85;;;7.32;;
22778;SDS011;11556;51.194;3.800;2023-10-08T13:56:28;14.80;;;7.18;;
22778;SDS011;11556;51.194;3.800;2023-10-08T13:58:56;12.55;;;6.55;;
22778;SDS011;11556;51.194;3.800;2023-10-08T14:01:38;13.15;;;6.63;;
22778;SDS011;11556;51.194;3.800;2023-10-08T14:04:08;13.45;;;7.00;;
22778;SDS011;11556;51.194;3.800;2023-10-08T14:06:37;14.23;;;6.88;;
22778;SDS011;11556;51.194;3.800;2023-10-08T14:09:06;14.55;;;7.13;;
22778;SDS011;11556;51.194;3.800;2023-10-08T14:11:37;12.88;;;7.75;;
22778;SDS011;11556;51.194;3.800;2023-10-08T14:14:03;13.73;;;7.18;;
22778;SDS011;11556;51.194;3.800;2023-10-08T14:16:35;13.23;;;7.55;;
22778;SDS011;11556;51.194;3.800;2023-10-08T14:19:07;19.73;;;8.07;;
22778;SDS011;11556;51.194;3.800;2023-10-08T14:21:37;12.73;;;7.97;;
22778;SDS011;11556;51.194;3.800;2023-10-08T14:24:20;13.65;;;7.68;;
22778;SDS011;11556;51.194;3.800;2023-10-08T14:26:46;14.40;;;8.43;;
22778;SDS011;11556;51.194;3.800;2023-10-08T14:29:18;17.25;;;7.70;;
22778;SDS011;11556;51.194;3.800;2023-10-08T14:31:43;12.32;;;7.45;;
22778;SDS011;11556;51.194;3.800;2023-10-08T14:34:13;12.52;;;7.43;;
22778;SDS011;11556;51.194;3.800;2023-10-08T14:36:46;13.77;;;7.25;;
22778;SDS011;11556;51.194;3.800;2023-10-08T14:39:31;15.63;;;7.35;;
22778;SDS011;11556;51.194;3.800;2023-10-08T14:42:17;12.02;;;6.97;;
22778;SDS011;11556;51.194;3.800;2023-10-08T14:45:01;11.35;;;6.35;;
22778;SDS011;11556;51.194;3.800;2023-10-08T14:47:28;11.48;;;6.70;;
22778;SDS011;11556;51.194;3.800;2023-10-08T14:49:54;12.18;;;6.93;;
22778;SDS011;11556;51.194;3.800;2023-10-08T14:52:19;16.27;;;6.95;;
22778;SDS011;11556;51.194;3.800;2023-10-08T14:54:45;12.10;;;6.85;;
22778;SDS011;11556;51.194;3.800;2023-10-08T14:57:14;15.30;;;6.45;;
22778;SDS011;11556;51.194;3.800;2023-10-08T14:59:40;13.02;;;6.55;;
22778;SDS011;11556;51.194;3.800;2023-10-08T15:02:07;15.88;;;6.43;;
22778;SDS011;11556;51.194;3.800;2023-10-08T15:04:35;14.20;;;6.65;;
22778;SDS011;11556;51.194;3.800;2023-10-08T15:07:04;12.57;;;6.07;;
22778;SDS011;11556;51.194;3.800;2023-10-08T15:09:33;12.52;;;6.80;;
22778;SDS011;11556;51.194;3.800;2023-10-08T15:11:59;11.13;;;6.22;;
22778;SDS011;11556;51.194;3.800;2023-10-08T15:14:25;12.98;;;6.65;;
22778;SDS011;11556;51.194;3.800;2023-10-08T15:16:51;10.77;;;6.32;;
22778;SDS011;11556;51.194;3.800;2023-10-08T15:19:23;11.73;;;6.35;;
22778;SDS011;11556;51.194;3.800;2023-10-08T15:21:49;14.18;;;6.93;;